Rms Voerde — V2AD8 — position and weather

sailwx.info

Track history (hours):
 
Tides and Currents Weather Stations Pressure Air Temp Water Temp Dewpoint Dewpoint Depression Visibility Wind Speed Wind Dir Waves Ship Positions

Rms Voerde

Last reported at 2017-Mar-30 00:30 UTC. Time now 2017-Mar-30 01:04 UTC.
Position N 51°54' E 004°19'.

Length 90 m.

Type: Ship. MMSI: 304010905.

Date/timePositionNaut miles runAvg speedWind from/ knotsBaromVisibWave heightAir tempDewpointWater temp
2017-Mar-30 00:30N 51°54' E 004°19'0 0.0
2017-Mar-29 23:33N 51°54' E 004°19'0 0.0
2017-Mar-29 22:31N 51°54' E 004°19'0 0.0
2017-Mar-29 21:31N 51°54' E 004°19'0 0.0
2017-Mar-29 20:33N 51°54' E 004°19'0 0.0
2017-Mar-29 19:30N 51°54' E 004°19'0 0.0
2017-Mar-29 18:24N 51°54' E 004°19'0 0.1
2017-Mar-29 17:31N 51°54' E 004°19'0 0.0
2017-Mar-29 16:33N 51°54' E 004°19'0 0.0
2017-Mar-29 15:30N 51°54' E 004°19'0 0.0
2017-Mar-29 14:33N 51°54' E 004°19'0 0.0
2017-Mar-29 13:34N 51°54' E 004°19'0 0.0
2017-Mar-29 12:30N 51°54' E 004°19'0 0.0
2017-Mar-29 11:33N 51°54' E 004°19'0 0.0
2017-Mar-29 10:33N 51°54' E 004°19'0 0.0
2017-Mar-29 09:27N 51°54' E 004°19'0 0.0
2017-Mar-29 08:34N 51°54' E 004°19'0 0.0
2017-Mar-29 07:33N 51°54' E 004°19'0 0.0
2017-Mar-29 06:33N 51°54' E 004°19'0 0.0
2017-Mar-29 05:33N 51°54' E 004°19'0 0.0
2017-Mar-29 04:33N 51°54' E 004°19'0 0.0
2017-Mar-29 03:33N 51°54' E 004°19'0 0.0
2017-Mar-29 02:33N 51°54' E 004°19'0 0.0
2017-Mar-29 01:33N 51°54' E 004°19'0 0.0
2017-Mar-29 00:33N 51°54' E 004°19'0 0.0
2017-Mar-28 23:33N 51°54' E 004°19'0 0.0
2017-Mar-28 22:33N 51°54' E 004°19'0 0.0
2017-Mar-28 21:33N 51°54' E 004°19'0 0.0
2017-Mar-28 20:33N 51°54' E 004°19'0 0.0
2017-Mar-28 19:33N 51°54' E 004°19'0 0.0
2017-Mar-28 18:33N 51°54' E 004°19'0 0.0
2017-Mar-28 17:33N 51°54' E 004°19'4 4.4
2017-Mar-28 16:33N 51°54' E 004°27'1 0.6
2017-Mar-28 15:31N 51°53' E 004°27'0 0.0
2017-Mar-28 14:31N 51°53' E 004°27'0 0.0
2017-Mar-28 13:31N 51°53' E 004°27'0 0.0
2017-Mar-28 12:31N 51°53' E 004°27'0 0.0
2017-Mar-28 11:31N 51°53' E 004°27'0 0.0
2017-Mar-28 10:31N 51°53' E 004°27'0 0.0
2017-Mar-28 09:31N 51°53' E 004°27'0 0.0
2017-Mar-28 08:31N 51°53' E 004°27'0 0.0
2017-Mar-28 07:31N 51°53' E 004°27'0 0.0
2017-Mar-28 06:28N 51°53' E 004°27'0 0.0
2017-Mar-28 05:31N 51°53' E 004°27'0 0.0
2017-Mar-28 04:31N 51°53' E 004°27'0 0.0
2017-Mar-28 03:31N 51°53' E 004°27'0 0.0
2017-Mar-28 02:28N 51°53' E 004°27'0 0.0
2017-Mar-28 01:31N 51°53' E 004°27'0 0.0
2017-Mar-28 00:31N 51°53' E 004°27'0 0.0
2017-Mar-27 23:31N 51°53' E 004°27'0 0.0
2017-Mar-27 22:31N 51°53' E 004°27'0 0.0
2017-Mar-27 21:31N 51°53' E 004°27'0 0.0
2017-Mar-27 20:31N 51°53' E 004°27'0 0.0
2017-Mar-27 19:31N 51°53' E 004°27'0 0.0
2017-Mar-27 18:31N 51°53' E 004°27'1 0.7
2017-Mar-27 17:33N 51°54' E 004°26'8 8.0
2017-Mar-27 16:33N 51°55' E 004°14'9 9.1
2017-Mar-27 15:33N 51°60' E 004°01'1010.1
2017-Mar-27 14:33N 51°60' E 003°44'1111.1
2017-Mar-27 13:32N 51°56' E 003°27'1211.8
2017-Mar-27 12:32N 51°52' E 003°09'1111.4
2017-Mar-27 11:32N 51°49' E 002°51'1110.4
2017-Mar-27 10:31N 51°44' E 002°36'10 9.8
2017-Mar-27 09:33N 51°37' E 002°26'9 9.0
2017-Mar-27 08:33N 51°30' E 002°17'9 8.6
2017-Mar-27 07:33N 51°22' E 002°10'9 8.5
2017-Mar-27 06:29N 51°14' E 002°04'8 8.2
2017-Mar-27 05:33N 51°10' E 001°54'8 8.4
2017-Mar-27 04:33N 51°04' E 001°44'9 9.1
2017-Mar-27 03:32N 50°58' E 001°34'67 9.6
2017-Mar-26 20:33N 50°20' E 000°07'1111.2
2017-Mar-26 19:33N 50°17' W 000°10'1111.4
2017-Mar-26 18:33N 50°14' W 000°27'1111.1
2017-Mar-26 17:33N 50°11' W 000°44'1010.4
2017-Mar-26 16:33N 50°08' W 000°60'9 8.9
2017-Mar-26 15:33N 50°06' W 001°13'7 7.2
2017-Mar-26 14:33N 50°04' W 001°24'6 5.8
2017-Mar-26 13:33N 50°03' W 001°33'5 4.7
2017-Mar-26 12:33N 50°02' W 001°40'5 4.5
2017-Mar-26 11:33N 50°00' W 001°47'6 5.6
2017-Mar-26 10:33N 49°58' W 001°55'7 6.5
2017-Mar-26 09:27N 49°57' W 002°06'124 6.2
2017-Mar-25 13:33N 48°51' W 004°48'7 7.0
2017-Mar-25 12:33N 48°47' W 004°57'7 6.7
2017-Mar-25 11:33N 48°43' W 005°05'6 6.4
2017-Mar-25 10:33N 48°39' W 005°12'6 5.6
2017-Mar-25 09:33N 48°35' W 005°18'6 5.2
2017-Mar-25 08:27N 48°31' W 005°24'5 5.1
2017-Mar-25 07:33N 48°27' W 005°27'  
2017-Mar-22 20:08N 43°43' W 007°27'1 1.1
2017-Mar-22 19:28N 43°44' W 007°27'7 7.9
2017-Mar-22 18:33N 43°44' W 007°36'0 0.0
2017-Mar-22 17:33N 43°44' W 007°36'0 0.0
2017-Mar-22 16:33N 43°44' W 007°36'0 0.0
2017-Mar-22 15:33N 43°44' W 007°36'0 0.0
2017-Mar-22 14:32N 43°44' W 007°36'0 0.0
2017-Mar-22 13:32N 43°44' W 007°36'0 0.1
2017-Mar-22 12:29N 43°44' W 007°36'0 0.1
2017-Mar-22 11:32N 43°44' W 007°36'0 0.0
2017-Mar-22 10:32N 43°44' W 007°37'0 0.0
2017-Mar-22 09:32N 43°44' W 007°36'0 0.0
2017-Mar-22 08:32N 43°44' W 007°36'0 0.0
2017-Mar-22 07:32N 43°44' W 007°36'0 0.3
2017-Mar-22 06:33N 43°44' W 007°36'10 9.0
2017-Mar-22 05:24N 43°49' W 007°49'  
Track history (hours):
 
Tides and Currents Weather Stations Pressure Air Temp Water Temp Dewpoint Dewpoint Depression Visibility Wind Speed Wind Dir Waves Ship Positions

Rms Voerde

Last reported at 2017-Mar-30 00:30 UTC. Time now 2017-Mar-30 01:04 UTC.
Position N 51°54' E 004°19'.

Length 90 m.

Type: Ship. MMSI: 304010905.

Date/timePositionNaut miles runAvg speedWind from/ knotsBaromVisibWave heightAir tempDewpointWater temp
2017-Mar-30 00:30N 51°54' E 004°19'0 0.0
2017-Mar-29 23:33N 51°54' E 004°19'0 0.0
2017-Mar-29 22:31N 51°54' E 004°19'0 0.0
2017-Mar-29 21:31N 51°54' E 004°19'0 0.0
2017-Mar-29 20:33N 51°54' E 004°19'0 0.0
2017-Mar-29 19:30N 51°54' E 004°19'0 0.0
2017-Mar-29 18:24N 51°54' E 004°19'0 0.1
2017-Mar-29 17:31N 51°54' E 004°19'0 0.0
2017-Mar-29 16:33N 51°54' E 004°19'0 0.0
2017-Mar-29 15:30N 51°54' E 004°19'0 0.0
2017-Mar-29 14:33N 51°54' E 004°19'0 0.0
2017-Mar-29 13:34N 51°54' E 004°19'0 0.0
2017-Mar-29 12:30N 51°54' E 004°19'0 0.0
2017-Mar-29 11:33N 51°54' E 004°19'0 0.0
2017-Mar-29 10:33N 51°54' E 004°19'0 0.0
2017-Mar-29 09:27N 51°54' E 004°19'0 0.0
2017-Mar-29 08:34N 51°54' E 004°19'0 0.0
2017-Mar-29 07:33N 51°54' E 004°19'0 0.0
2017-Mar-29 06:33N 51°54' E 004°19'0 0.0
2017-Mar-29 05:33N 51°54' E 004°19'0 0.0
2017-Mar-29 04:33N 51°54' E 004°19'0 0.0
2017-Mar-29 03:33N 51°54' E 004°19'0 0.0
2017-Mar-29 02:33N 51°54' E 004°19'0 0.0
2017-Mar-29 01:33N 51°54' E 004°19'0 0.0
2017-Mar-29 00:33N 51°54' E 004°19'0 0.0
2017-Mar-28 23:33N 51°54' E 004°19'0 0.0
2017-Mar-28 22:33N 51°54' E 004°19'0 0.0
2017-Mar-28 21:33N 51°54' E 004°19'0 0.0
2017-Mar-28 20:33N 51°54' E 004°19'0 0.0
2017-Mar-28 19:33N 51°54' E 004°19'0 0.0
2017-Mar-28 18:33N 51°54' E 004°19'0 0.0
2017-Mar-28 17:33N 51°54' E 004°19'4 4.4
2017-Mar-28 16:33N 51°54' E 004°27'1 0.6
2017-Mar-28 15:31N 51°53' E 004°27'0 0.0
2017-Mar-28 14:31N 51°53' E 004°27'0 0.0
2017-Mar-28 13:31N 51°53' E 004°27'0 0.0
2017-Mar-28 12:31N 51°53' E 004°27'0 0.0
2017-Mar-28 11:31N 51°53' E 004°27'0 0.0
2017-Mar-28 10:31N 51°53' E 004°27'0 0.0
2017-Mar-28 09:31N 51°53' E 004°27'0 0.0
2017-Mar-28 08:31N 51°53' E 004°27'0 0.0
2017-Mar-28 07:31N 51°53' E 004°27'0 0.0
2017-Mar-28 06:28N 51°53' E 004°27'0 0.0
2017-Mar-28 05:31N 51°53' E 004°27'0 0.0
2017-Mar-28 04:31N 51°53' E 004°27'0 0.0
2017-Mar-28 03:31N 51°53' E 004°27'0 0.0
2017-Mar-28 02:28N 51°53' E 004°27'0 0.0
2017-Mar-28 01:31N 51°53' E 004°27'0 0.0
2017-Mar-28 00:31N 51°53' E 004°27'0 0.0
2017-Mar-27 23:31N 51°53' E 004°27'0 0.0
2017-Mar-27 22:31N 51°53' E 004°27'0 0.0
2017-Mar-27 21:31N 51°53' E 004°27'0 0.0
2017-Mar-27 20:31N 51°53' E 004°27'0 0.0
2017-Mar-27 19:31N 51°53' E 004°27'0 0.0
2017-Mar-27 18:31N 51°53' E 004°27'1 0.7
2017-Mar-27 17:33N 51°54' E 004°26'8 8.0
2017-Mar-27 16:33N 51°55' E 004°14'9 9.1
2017-Mar-27 15:33N 51°60' E 004°01'1010.1
2017-Mar-27 14:33N 51°60' E 003°44'1111.1
2017-Mar-27 13:32N 51°56' E 003°27'1211.8
2017-Mar-27 12:32N 51°52' E 003°09'1111.4
2017-Mar-27 11:32N 51°49' E 002°51'1110.4
2017-Mar-27 10:31N 51°44' E 002°36'10 9.8
2017-Mar-27 09:33N 51°37' E 002°26'9 9.0
2017-Mar-27 08:33N 51°30' E 002°17'9 8.6
2017-Mar-27 07:33N 51°22' E 002°10'9 8.5
2017-Mar-27 06:29N 51°14' E 002°04'8 8.2
2017-Mar-27 05:33N 51°10' E 001°54'8 8.4
2017-Mar-27 04:33N 51°04' E 001°44'9 9.1
2017-Mar-27 03:32N 50°58' E 001°34'67 9.6
2017-Mar-26 20:33N 50°20' E 000°07'1111.2
2017-Mar-26 19:33N 50°17' W 000°10'1111.4
2017-Mar-26 18:33N 50°14' W 000°27'1111.1
2017-Mar-26 17:33N 50°11' W 000°44'1010.4
2017-Mar-26 16:33N 50°08' W 000°60'9 8.9
2017-Mar-26 15:33N 50°06' W 001°13'7 7.2
2017-Mar-26 14:33N 50°04' W 001°24'6 5.8
2017-Mar-26 13:33N 50°03' W 001°33'5 4.7
2017-Mar-26 12:33N 50°02' W 001°40'5 4.5
2017-Mar-26 11:33N 50°00' W 001°47'6 5.6
2017-Mar-26 10:33N 49°58' W 001°55'7 6.5
2017-Mar-26 09:27N 49°57' W 002°06'124 6.2
2017-Mar-25 13:33N 48°51' W 004°48'7 7.0
2017-Mar-25 12:33N 48°47' W 004°57'7 6.7
2017-Mar-25 11:33N 48°43' W 005°05'6 6.4
2017-Mar-25 10:33N 48°39' W 005°12'6 5.6
2017-Mar-25 09:33N 48°35' W 005°18'6 5.2
2017-Mar-25 08:27N 48°31' W 005°24'5 5.1
2017-Mar-25 07:33N 48°27' W 005°27'  
2017-Mar-22 20:08N 43°43' W 007°27'1 1.1
2017-Mar-22 19:28N 43°44' W 007°27'7 7.9
2017-Mar-22 18:33N 43°44' W 007°36'0 0.0
2017-Mar-22 17:33N 43°44' W 007°36'0 0.0
2017-Mar-22 16:33N 43°44' W 007°36'0 0.0
2017-Mar-22 15:33N 43°44' W 007°36'0 0.0
2017-Mar-22 14:32N 43°44' W 007°36'0 0.0
2017-Mar-22 13:32N 43°44' W 007°36'0 0.1
2017-Mar-22 12:29N 43°44' W 007°36'0 0.1
2017-Mar-22 11:32N 43°44' W 007°36'0 0.0
2017-Mar-22 10:32N 43°44' W 007°37'0 0.0
2017-Mar-22 09:32N 43°44' W 007°36'0 0.0
2017-Mar-22 08:32N 43°44' W 007°36'0 0.0
2017-Mar-22 07:32N 43°44' W 007°36'0 0.3
2017-Mar-22 06:33N 43°44' W 007°36'10 9.0
2017-Mar-22 05:24N 43°49' W 007°49'  

Dump ship's entire track history